ASN logo
ASN Wikibase Occurrence # 204035
Last updated: 14 December 2018
This information is added by users of ASN. Neither ASN nor the Flight Safety Foundation are responsible for the completeness or correctness of this information. If you feel this information is incomplete or incorrect, you can submit corrected information.

Date:07-JAN-2018
Time:10:17 LT
Type:Silhouette image of generic F2TH model; specific model in this crash may look slightly different
Dassault Falcon 2000EX
Owner/operator:Private
Registration: N726DC
C/n / msn: 50
Fatalities:Fatalities: 0 / Occupants: 3
Other fatalities:0
Aircraft damage: None
Category:Incident
Location:Aspen Airport, CO (ASE/KASE) -   United States of America
Phase: Landing
Nature:Unknown
Departure airport:Denver-Centennial Airport, CO (APA/KAPA)
Destination airport:Aspen Airport, CO (ASE/KASE)
Narrative:
A Dassault Falcon 2000EX corporate jet landed on the grass/snow adjacent to the west (right) of runway 15 at Aspen Airport, Colorado, USA. There was no damage according to the FAA. The aircraft was able to taxi to the platform.
The aircraft originated from Denver-Centennial Airport at 09:42 LT.

Weather reported at Aspen about the incident time (10:17 LT / 1717Z):
KASE 071753Z 00000KT 10SM FEW010 SCT021 01/M04 A3025 RMK AO2 SLP217 T00111039 10011 21017 51023
KASE 071653Z 00000KT 10SM FEW010 BKN041 M01/M03 A3021 RMK AO2 SLP211 T10061028

Sources:

FAA
https://www.flightradar24.com/2018-01-07/17:14/12x/F2TH/100ec908
https://flightaware.com/live/flight/N726DC
LiveATC: [LINK NOT WORKING ANYMORE:http://archive-server.liveatc.net/kase/KASE-Gnd-Twr-Jan-07-2018-1700Z.mp3]


Images:


Revision history:

Date/timeContributorUpdates
08-Jan-2018 18:56 harro Added
08-Jan-2018 18:56 harro Updated [Location, Narrative]
08-Jan-2018 19:11 harro Updated [Time, Aircraft type, Registration, Cn, Operator, Nature, Departure airport, Source, Narrative]
08-Jan-2018 19:14 harro Updated [Source]
08-Jan-2018 20:52 harro Updated [Total occupants, Source]
08-Jan-2018 20:56 harro Updated [Narrative]
11-Jan-2018 08:20 Anon. Updated [Photo, ]

Corrections or additions? ... Edit this accident description